sensor_id;sensor_type;location;lat;lon;timestamp;P1;durP1;ratioP1;P2;durP2;ratioP2
9270;SDS011;4673;53.458;9.940;2023-04-15T00:00:26;3.60;;;3.60;;
9270;SDS011;4673;53.458;9.940;2023-04-15T00:02:53;3.57;;;3.57;;
9270;SDS011;4673;53.458;9.940;2023-04-15T00:05:19;3.83;;;3.83;;
9270;SDS011;4673;53.458;9.940;2023-04-15T00:07:45;3.57;;;3.57;;
9270;SDS011;4673;53.458;9.940;2023-04-15T00:10:11;3.43;;;3.43;;
9270;SDS011;4673;53.458;9.940;2023-04-15T00:12:36;3.93;;;3.93;;
9270;SDS011;4673;53.458;9.940;2023-04-15T00:15:02;3.63;;;3.63;;
9270;SDS011;4673;53.458;9.940;2023-04-15T00:17:28;3.60;;;3.60;;
9270;SDS011;4673;53.458;9.940;2023-04-15T00:19:54;3.40;;;3.40;;
9270;SDS011;4673;53.458;9.940;2023-04-15T00:22:20;3.87;;;3.87;;
9270;SDS011;4673;53.458;9.940;2023-04-15T00:24:46;3.70;;;3.70;;
9270;SDS011;4673;53.458;9.940;2023-04-15T00:27:12;3.43;;;3.43;;
9270;SDS011;4673;53.458;9.940;2023-04-15T00:29:38;3.77;;;3.77;;
9270;SDS011;4673;53.458;9.940;2023-04-15T00:32:04;3.73;;;3.73;;
9270;SDS011;4673;53.458;9.940;2023-04-15T00:34:30;3.40;;;3.40;;
9270;SDS011;4673;53.458;9.940;2023-04-15T00:36:56;3.93;;;3.93;;
9270;SDS011;4673;53.458;9.940;2023-04-15T00:39:22;4.30;;;4.30;;
9270;SDS011;4673;53.458;9.940;2023-04-15T00:41:48;4.57;;;4.57;;
9270;SDS011;4673;53.458;9.940;2023-04-15T00:44:13;4.50;;;4.50;;
9270;SDS011;4673;53.458;9.940;2023-04-15T00:46:39;4.83;;;4.83;;
9270;SDS011;4673;53.458;9.940;2023-04-15T00:49:07;4.23;;;4.23;;
9270;SDS011;4673;53.458;9.940;2023-04-15T00:51:33;3.93;;;3.93;;
9270;SDS011;4673;53.458;9.940;2023-04-15T00:54:04;4.13;;;4.13;;
9270;SDS011;4673;53.458;9.940;2023-04-15T00:56:34;4.10;;;4.10;;
9270;SDS011;4673;53.458;9.940;2023-04-15T00:59:02;4.33;;;4.33;;
9270;SDS011;4673;53.458;9.940;2023-04-15T01:01:30;4.33;;;4.33;;
9270;SDS011;4673;53.458;9.940;2023-04-15T01:03:56;4.93;;;4.93;;
9270;SDS011;4673;53.458;9.940;2023-04-15T01:06:22;4.73;;;4.73;;
9270;SDS011;4673;53.458;9.940;2023-04-15T01:08:48;4.50;;;4.50;;
9270;SDS011;4673;53.458;9.940;2023-04-15T01:11:14;4.20;;;4.20;;
9270;SDS011;4673;53.458;9.940;2023-04-15T01:13:41;4.00;;;4.00;;
9270;SDS011;4673;53.458;9.940;2023-04-15T01:16:07;3.37;;;3.37;;
9270;SDS011;4673;53.458;9.940;2023-04-15T01:18:33;4.20;;;4.20;;
9270;SDS011;4673;53.458;9.940;2023-04-15T01:21:03;3.90;;;3.90;;
9270;SDS011;4673;53.458;9.940;2023-04-15T01:23:30;3.73;;;3.73;;
9270;SDS011;4673;53.458;9.940;2023-04-15T01:25:56;4.60;;;4.60;;
9270;SDS011;4673;53.458;9.940;2023-04-15T01:28:24;4.40;;;4.40;;
9270;SDS011;4673;53.458;9.940;2023-04-15T01:30:50;4.30;;;4.30;;
9270;SDS011;4673;53.458;9.940;2023-04-15T01:33:39;4.47;;;4.47;;
9270;SDS011;4673;53.458;9.940;2023-04-15T01:36:06;4.27;;;4.27;;
9270;SDS011;4673;53.458;9.940;2023-04-15T01:38:34;4.07;;;4.07;;
9270;SDS011;4673;53.458;9.940;2023-04-15T01:41:00;4.27;;;4.27;;
9270;SDS011;4673;53.458;9.940;2023-04-15T01:43:28;4.80;;;4.80;;
9270;SDS011;4673;53.458;9.940;2023-04-15T01:45:53;4.43;;;4.43;;
9270;SDS011;4673;53.458;9.940;2023-04-15T01:48:20;4.93;;;4.93;;
9270;SDS011;4673;53.458;9.940;2023-04-15T01:50:47;4.20;;;4.20;;
9270;SDS011;4673;53.458;9.940;2023-04-15T01:53:13;4.13;;;4.13;;
9270;SDS011;4673;53.458;9.940;2023-04-15T01:55:39;4.80;;;4.80;;
9270;SDS011;4673;53.458;9.940;2023-04-15T01:58:05;4.70;;;4.70;;
9270;SDS011;4673;53.458;9.940;2023-04-15T02:00:31;4.73;;;4.73;;
9270;SDS011;4673;53.458;9.940;2023-04-15T02:02:57;4.50;;;4.50;;
9270;SDS011;4673;53.458;9.940;2023-04-15T02:05:23;4.90;;;4.90;;
9270;SDS011;4673;53.458;9.940;2023-04-15T02:07:49;5.67;;;5.67;;
9270;SDS011;4673;53.458;9.940;2023-04-15T02:10:15;5.30;;;5.30;;
9270;SDS011;4673;53.458;9.940;2023-04-15T02:12:41;4.97;;;4.97;;
9270;SDS011;4673;53.458;9.940;2023-04-15T02:15:07;4.63;;;4.63;;
9270;SDS011;4673;53.458;9.940;2023-04-15T02:17:34;4.77;;;4.77;;
9270;SDS011;4673;53.458;9.940;2023-04-15T02:20:03;4.80;;;4.80;;
9270;SDS011;4673;53.458;9.940;2023-04-15T02:22:32;5.50;;;5.50;;
9270;SDS011;4673;53.458;9.940;2023-04-15T02:24:58;5.93;;;5.93;;
9270;SDS011;4673;53.458;9.940;2023-04-15T02:27:24;5.27;;;5.27;;
9270;SDS011;4673;53.458;9.940;2023-04-15T02:29:50;6.27;;;6.27;;
9270;SDS011;4673;53.458;9.940;2023-04-15T02:32:16;5.63;;;5.63;;
9270;SDS011;4673;53.458;9.940;2023-04-15T02:34:42;6.13;;;6.13;;
9270;SDS011;4673;53.458;9.940;2023-04-15T02:37:08;6.20;;;6.20;;
9270;SDS011;4673;53.458;9.940;2023-04-15T02:39:35;5.93;;;5.93;;
9270;SDS011;4673;53.458;9.940;2023-04-15T02:42:01;5.63;;;5.63;;
9270;SDS011;4673;53.458;9.940;2023-04-15T02:44:27;6.40;;;6.40;;
9270;SDS011;4673;53.458;9.940;2023-04-15T02:46:53;6.80;;;6.80;;
9270;SDS011;4673;53.458;9.940;2023-04-15T02:49:21;7.03;;;7.03;;
9270;SDS011;4673;53.458;9.940;2023-04-15T02:51:47;6.80;;;6.80;;
9270;SDS011;4673;53.458;9.940;2023-04-15T02:54:17;7.30;;;7.30;;
9270;SDS011;4673;53.458;9.940;2023-04-15T02:56:43;6.77;;;6.77;;
9270;SDS011;4673;53.458;9.940;2023-04-15T02:59:09;7.13;;;7.13;;
9270;SDS011;4673;53.458;9.940;2023-04-15T03:01:36;7.87;;;7.87;;
9270;SDS011;4673;53.458;9.940;2023-04-15T03:04:02;8.13;;;8.13;;
9270;SDS011;4673;53.458;9.940;2023-04-15T03:06:27;8.33;;;8.33;;
9270;SDS011;4673;53.458;9.940;2023-04-15T03:08:53;7.80;;;7.80;;
9270;SDS011;4673;53.458;9.940;2023-04-15T03:11:19;7.27;;;7.27;;
9270;SDS011;4673;53.458;9.940;2023-04-15T03:13:45;8.47;;;8.47;;
9270;SDS011;4673;53.458;9.940;2023-04-15T03:16:11;8.43;;;8.43;;
9270;SDS011;4673;53.458;9.940;2023-04-15T03:18:37;9.10;;;9.10;;
9270;SDS011;4673;53.458;9.940;2023-04-15T03:21:02;8.70;;;8.70;;
9270;SDS011;4673;53.458;9.940;2023-04-15T03:23:29;8.70;;;8.70;;
9270;SDS011;4673;53.458;9.940;2023-04-15T03:25:55;8.43;;;8.43;;
9270;SDS011;4673;53.458;9.940;2023-04-15T03:28:22;8.80;;;8.80;;
9270;SDS011;4673;53.458;9.940;2023-04-15T03:30:48;9.87;;;9.87;;
9270;SDS011;4673;53.458;9.940;2023-04-15T03:33:14;9.70;;;9.70;;
9270;SDS011;4673;53.458;9.940;2023-04-15T03:35:39;9.03;;;9.03;;
9270;SDS011;4673;53.458;9.940;2023-04-15T03:38:05;8.83;;;8.83;;
9270;SDS011;4673;53.458;9.940;2023-04-15T03:40:31;9.53;;;9.53;;
9270;SDS011;4673;53.458;9.940;2023-04-15T03:42:57;10.20;;;10.20;;
9270;SDS011;4673;53.458;9.940;2023-04-15T03:45:22;9.43;;;9.43;;
9270;SDS011;4673;53.458;9.940;2023-04-15T03:47:48;9.97;;;9.97;;
9270;SDS011;4673;53.458;9.940;2023-04-15T03:50:13;10.00;;;9.90;;
9270;SDS011;4673;53.458;9.940;2023-04-15T03:52:39;9.70;;;9.70;;
9270;SDS011;4673;53.458;9.940;2023-04-15T03:55:05;9.67;;;9.67;;
9270;SDS011;4673;53.458;9.940;2023-04-15T03:57:32;9.00;;;9.00;;
9270;SDS011;4673;53.458;9.940;2023-04-15T04:00:02;9.97;;;9.97;;
9270;SDS011;4673;53.458;9.940;2023-04-15T04:02:28;9.93;;;9.93;;
9270;SDS011;4673;53.458;9.940;2023-04-15T04:04:54;10.30;;;10.30;;
9270;SDS011;4673;53.458;9.940;2023-04-15T04:07:21;9.53;;;9.53;;
9270;SDS011;4673;53.458;9.940;2023-04-15T04:09:48;9.43;;;9.43;;
9270;SDS011;4673;53.458;9.940;2023-04-15T04:12:14;10.70;;;10.70;;
9270;SDS011;4673;53.458;9.940;2023-04-15T04:14:40;9.37;;;9.37;;
9270;SDS011;4673;53.458;9.940;2023-04-15T04:17:05;10.13;;;10.13;;
9270;SDS011;4673;53.458;9.940;2023-04-15T04:19:31;10.53;;;10.53;;
9270;SDS011;4673;53.458;9.940;2023-04-15T04:21:56;10.33;;;10.23;;
9270;SDS011;4673;53.458;9.940;2023-04-15T04:24:22;11.07;;;10.97;;
9270;SDS011;4673;53.458;9.940;2023-04-15T04:26:48;9.90;;;9.90;;
9270;SDS011;4673;53.458;9.940;2023-04-15T04:29:13;10.80;;;10.80;;
9270;SDS011;4673;53.458;9.940;2023-04-15T04:31:39;10.43;;;10.43;;
9270;SDS011;4673;53.458;9.940;2023-04-15T04:34:05;9.90;;;9.90;;
9270;SDS011;4673;53.458;9.940;2023-04-15T04:36:31;10.93;;;10.83;;
9270;SDS011;4673;53.458;9.940;2023-04-15T04:38:56;9.97;;;9.93;;
9270;SDS011;4673;53.458;9.940;2023-04-15T04:41:22;10.77;;;10.70;;
9270;SDS011;4673;53.458;9.940;2023-04-15T04:43:47;10.67;;;10.57;;
9270;SDS011;4673;53.458;9.940;2023-04-15T04:46:13;10.83;;;10.73;;
9270;SDS011;4673;53.458;9.940;2023-04-15T04:48:39;10.30;;;10.20;;
9270;SDS011;4673;53.458;9.940;2023-04-15T04:51:05;9.90;;;9.90;;
9270;SDS011;4673;53.458;9.940;2023-04-15T04:53:31;11.10;;;11.00;;
9270;SDS011;4673;53.458;9.940;2023-04-15T04:55:57;10.67;;;10.67;;
9270;SDS011;4673;53.458;9.940;2023-04-15T04:58:23;10.67;;;10.67;;
9270;SDS011;4673;53.458;9.940;2023-04-15T05:00:48;11.70;;;11.60;;
9270;SDS011;4673;53.458;9.940;2023-04-15T05:03:14;10.70;;;10.60;;
9270;SDS011;4673;53.458;9.940;2023-04-15T05:05:40;11.13;;;11.03;;
9270;SDS011;4673;53.458;9.940;2023-04-15T05:08:06;11.63;;;11.53;;
9270;SDS011;4673;53.458;9.940;2023-04-15T05:10:31;11.03;;;10.93;;
9270;SDS011;4673;53.458;9.940;2023-04-15T05:12:57;12.27;;;12.17;;
9270;SDS011;4673;53.458;9.940;2023-04-15T05:15:23;12.77;;;12.67;;
9270;SDS011;4673;53.458;9.940;2023-04-15T05:17:49;11.20;;;11.10;;
9270;SDS011;4673;53.458;9.940;2023-04-15T05:20:15;12.17;;;12.07;;
9270;SDS011;4673;53.458;9.940;2023-04-15T05:22:41;13.00;;;12.90;;
9270;SDS011;4673;53.458;9.940;2023-04-15T05:25:07;13.93;;;13.83;;
9270;SDS011;4673;53.458;9.940;2023-04-15T05:27:33;12.53;;;12.43;;
9270;SDS011;4673;53.458;9.940;2023-04-15T05:29:59;14.30;;;14.20;;
9270;SDS011;4673;53.458;9.940;2023-04-15T05:32:25;14.70;;;14.60;;
9270;SDS011;4673;53.458;9.940;2023-04-15T05:34:51;14.17;;;14.07;;
9270;SDS011;4673;53.458;9.940;2023-04-15T05:37:16;15.43;;;15.33;;
9270;SDS011;4673;53.458;9.940;2023-04-15T05:39:44;14.83;;;14.73;;
9270;SDS011;4673;53.458;9.940;2023-04-15T05:42:10;14.33;;;14.23;;
9270;SDS011;4673;53.458;9.940;2023-04-15T05:44:36;14.60;;;14.50;;
9270;SDS011;4673;53.458;9.940;2023-04-15T05:47:02;14.67;;;14.57;;
9270;SDS011;4673;53.458;9.940;2023-04-15T05:49:27;15.33;;;15.23;;
9270;SDS011;4673;53.458;9.940;2023-04-15T05:51:53;15.93;;;15.83;;
9270;SDS011;4673;53.458;9.940;2023-04-15T05:54:19;16.83;;;16.73;;
9270;SDS011;4673;53.458;9.940;2023-04-15T05:56:47;15.80;;;15.70;;
9270;SDS011;4673;53.458;9.940;2023-04-15T05:59:12;16.93;;;16.83;;
9270;SDS011;4673;53.458;9.940;2023-04-15T06:01:38;16.47;;;16.37;;
9270;SDS011;4673;53.458;9.940;2023-04-15T06:04:05;17.60;;;17.40;;
9270;SDS011;4673;53.458;9.940;2023-04-15T06:06:31;17.97;;;17.80;;
9270;SDS011;4673;53.458;9.940;2023-04-15T06:08:57;16.93;;;16.83;;
9270;SDS011;4673;53.458;9.940;2023-04-15T06:11:23;18.37;;;18.27;;
9270;SDS011;4673;53.458;9.940;2023-04-15T06:13:50;17.73;;;17.53;;
9270;SDS011;4673;53.458;9.940;2023-04-15T06:16:16;19.17;;;18.97;;
9270;SDS011;4673;53.458;9.940;2023-04-15T06:18:42;18.70;;;18.50;;
9270;SDS011;4673;53.458;9.940;2023-04-15T06:21:07;20.00;;;19.80;;
9270;SDS011;4673;53.458;9.940;2023-04-15T06:23:33;20.53;;;20.33;;
9270;SDS011;4673;53.458;9.940;2023-04-15T06:26:00;20.40;;;20.20;;
9270;SDS011;4673;53.458;9.940;2023-04-15T06:28:26;17.83;;;17.73;;
9270;SDS011;4673;53.458;9.940;2023-04-15T06:30:52;20.47;;;20.27;;
9270;SDS011;4673;53.458;9.940;2023-04-15T06:33:18;20.37;;;20.17;;
9270;SDS011;4673;53.458;9.940;2023-04-15T06:35:44;21.27;;;21.07;;
9270;SDS011;4673;53.458;9.940;2023-04-15T06:38:09;20.47;;;20.27;;
9270;SDS011;4673;53.458;9.940;2023-04-15T06:40:35;21.03;;;20.83;;
9270;SDS011;4673;53.458;9.940;2023-04-15T06:43:01;21.27;;;21.07;;
9270;SDS011;4673;53.458;9.940;2023-04-15T06:45:26;20.23;;;20.03;;
9270;SDS011;4673;53.458;9.940;2023-04-15T06:47:52;20.77;;;20.57;;
9270;SDS011;4673;53.458;9.940;2023-04-15T06:50:17;23.53;;;23.33;;
9270;SDS011;4673;53.458;9.940;2023-04-15T06:52:43;24.07;;;23.87;;
9270;SDS011;4673;53.458;9.940;2023-04-15T06:55:09;23.23;;;23.03;;
9270;SDS011;4673;53.458;9.940;2023-04-15T06:57:34;25.10;;;24.80;;
9270;SDS011;4673;53.458;9.940;2023-04-15T07:00:00;21.10;;;20.90;;
9270;SDS011;4673;53.458;9.940;2023-04-15T07:02:26;22.53;;;22.33;;
9270;SDS011;4673;53.458;9.940;2023-04-15T07:04:52;23.23;;;23.03;;
9270;SDS011;4673;53.458;9.940;2023-04-15T07:07:18;25.47;;;25.27;;
9270;SDS011;4673;53.458;9.940;2023-04-15T07:09:43;24.80;;;24.60;;
9270;SDS011;4673;53.458;9.940;2023-04-15T07:12:09;24.53;;;24.33;;
9270;SDS011;4673;53.458;9.940;2023-04-15T07:14:35;27.20;;;26.97;;
9270;SDS011;4673;53.458;9.940;2023-04-15T07:17:01;26.40;;;26.10;;
9270;SDS011;4673;53.458;9.940;2023-04-15T07:19:26;27.43;;;27.13;;
9270;SDS011;4673;53.458;9.940;2023-04-15T07:21:52;26.60;;;26.33;;
9270;SDS011;4673;53.458;9.940;2023-04-15T07:24:18;26.37;;;26.07;;
9270;SDS011;4673;53.458;9.940;2023-04-15T07:26:44;28.77;;;28.47;;
9270;SDS011;4673;53.458;9.940;2023-04-15T07:29:10;27.50;;;27.30;;
9270;SDS011;4673;53.458;9.940;2023-04-15T07:31:36;23.97;;;23.77;;
9270;SDS011;4673;53.458;9.940;2023-04-15T07:34:02;30.77;;;30.47;;
9270;SDS011;4673;53.458;9.940;2023-04-15T07:36:29;30.13;;;29.83;;
9270;SDS011;4673;53.458;9.940;2023-04-15T07:38:54;30.37;;;30.07;;
9270;SDS011;4673;53.458;9.940;2023-04-15T07:41:21;31.33;;;31.03;;
9270;SDS011;4673;53.458;9.940;2023-04-15T07:43:47;30.10;;;29.80;;
9270;SDS011;4673;53.458;9.940;2023-04-15T07:46:13;30.07;;;29.77;;
9270;SDS011;4673;53.458;9.940;2023-04-15T07:48:39;28.17;;;27.87;;
9270;SDS011;4673;53.458;9.940;2023-04-15T07:51:05;30.90;;;30.60;;
9270;SDS011;4673;53.458;9.940;2023-04-15T07:53:31;29.63;;;29.33;;
9270;SDS011;4673;53.458;9.940;2023-04-15T07:55:57;30.20;;;29.90;;
9270;SDS011;4673;53.458;9.940;2023-04-15T07:58:23;31.23;;;30.93;;
9270;SDS011;4673;53.458;9.940;2023-04-15T08:00:49;32.90;;;32.60;;
9270;SDS011;4673;53.458;9.940;2023-04-15T08:03:15;31.23;;;30.90;;
9270;SDS011;4673;53.458;9.940;2023-04-15T08:05:41;29.80;;;29.50;;
9270;SDS011;4673;53.458;9.940;2023-04-15T08:08:06;30.60;;;30.30;;
9270;SDS011;4673;53.458;9.940;2023-04-15T08:10:32;30.17;;;29.87;;
9270;SDS011;4673;53.458;9.940;2023-04-15T08:12:58;31.47;;;31.17;;
9270;SDS011;4673;53.458;9.940;2023-04-15T08:15:25;30.23;;;29.93;;
9270;SDS011;4673;53.458;9.940;2023-04-15T08:17:51;29.60;;;29.30;;
9270;SDS011;4673;53.458;9.940;2023-04-15T08:20:16;30.93;;;30.63;;
9270;SDS011;4673;53.458;9.940;2023-04-15T08:22:42;30.27;;;29.97;;
9270;SDS011;4673;53.458;9.940;2023-04-15T08:25:08;30.13;;;29.83;;
9270;SDS011;4673;53.458;9.940;2023-04-15T08:27:34;30.07;;;29.77;;
9270;SDS011;4673;53.458;9.940;2023-04-15T08:30:00;28.73;;;28.43;;
9270;SDS011;4673;53.458;9.940;2023-04-15T08:32:26;30.80;;;30.50;;
9270;SDS011;4673;53.458;9.940;2023-04-15T08:34:52;29.80;;;29.50;;
9270;SDS011;4673;53.458;9.940;2023-04-15T08:37:18;31.67;;;31.37;;
9270;SDS011;4673;53.458;9.940;2023-04-15T08:39:44;31.67;;;31.37;;
9270;SDS011;4673;53.458;9.940;2023-04-15T08:42:10;28.70;;;28.40;;
9270;SDS011;4673;53.458;9.940;2023-04-15T08:44:40;30.57;;;30.27;;
9270;SDS011;4673;53.458;9.940;2023-04-15T08:47:07;29.13;;;28.83;;
9270;SDS011;4673;53.458;9.940;2023-04-15T08:49:34;28.93;;;28.63;;
9270;SDS011;4673;53.458;9.940;2023-04-15T08:52:05;30.97;;;30.67;;
9270;SDS011;4673;53.458;9.940;2023-04-15T08:54:31;33.97;;;33.67;;
9270;SDS011;4673;53.458;9.940;2023-04-15T08:56:58;30.30;;;30.00;;
9270;SDS011;4673;53.458;9.940;2023-04-15T08:59:24;31.03;;;30.73;;
9270;SDS011;4673;53.458;9.940;2023-04-15T09:01:49;32.53;;;32.23;;
9270;SDS011;4673;53.458;9.940;2023-04-15T09:04:16;32.10;;;31.80;;
9270;SDS011;4673;53.458;9.940;2023-04-15T09:06:42;31.70;;;31.40;;
9270;SDS011;4673;53.458;9.940;2023-04-15T09:09:08;32.30;;;32.00;;
9270;SDS011;4673;53.458;9.940;2023-04-15T09:11:34;32.10;;;31.80;;
9270;SDS011;4673;53.458;9.940;2023-04-15T09:14:00;31.20;;;30.90;;
9270;SDS011;4673;53.458;9.940;2023-04-15T09:16:26;29.70;;;29.40;;
9270;SDS011;4673;53.458;9.940;2023-04-15T09:18:52;29.83;;;29.53;;
9270;SDS011;4673;53.458;9.940;2023-04-15T09:21:18;29.83;;;29.63;;
9270;SDS011;4673;53.458;9.940;2023-04-15T09:23:54;27.97;;;27.77;;
9270;SDS011;4673;53.458;9.940;2023-04-15T09:26:35;29.53;;;29.23;;
9270;SDS011;4673;53.458;9.940;2023-04-15T09:29:10;27.10;;;26.90;;
9270;SDS011;4673;53.458;9.940;2023-04-15T09:31:37;28.73;;;28.47;;
9270;SDS011;4673;53.458;9.940;2023-04-15T09:34:04;28.00;;;27.80;;
9270;SDS011;4673;53.458;9.940;2023-04-15T09:36:50;28.47;;;28.17;;
9270;SDS011;4673;53.458;9.940;2023-04-15T09:39:18;29.80;;;29.57;;
9270;SDS011;4673;53.458;9.940;2023-04-15T09:41:44;28.40;;;28.10;;
9270;SDS011;4673;53.458;9.940;2023-04-15T09:44:25;26.37;;;26.17;;
9270;SDS011;4673;53.458;9.940;2023-04-15T09:46:51;27.47;;;27.27;;
9270;SDS011;4673;53.458;9.940;2023-04-15T09:49:17;27.43;;;27.23;;
9270;SDS011;4673;53.458;9.940;2023-04-15T09:51:43;25.80;;;25.60;;
9270;SDS011;4673;53.458;9.940;2023-04-15T09:54:09;28.03;;;27.83;;
9270;SDS011;4673;53.458;9.940;2023-04-15T09:56:35;28.33;;;28.13;;
9270;SDS011;4673;53.458;9.940;2023-04-15T09:59:06;26.80;;;26.60;;
9270;SDS011;4673;53.458;9.940;2023-04-15T10:01:32;27.40;;;27.20;;
9270;SDS011;4673;53.458;9.940;2023-04-15T10:03:58;24.93;;;24.73;;
9270;SDS011;4673;53.458;9.940;2023-04-15T10:06:27;24.50;;;24.30;;
9270;SDS011;4673;53.458;9.940;2023-04-15T10:08:54;23.27;;;23.07;;
9270;SDS011;4673;53.458;9.940;2023-04-15T10:11:26;24.33;;;24.13;;
9270;SDS011;4673;53.458;9.940;2023-04-15T10:13:53;22.80;;;22.60;;
9270;SDS011;4673;53.458;9.940;2023-04-15T10:16:20;24.73;;;24.53;;
9270;SDS011;4673;53.458;9.940;2023-04-15T10:18:55;21.57;;;21.43;;
9270;SDS011;4673;53.458;9.940;2023-04-15T10:21:22;21.93;;;21.73;;
9270;SDS011;4673;53.458;9.940;2023-04-15T10:23:48;22.17;;;22.00;;
9270;SDS011;4673;53.458;9.940;2023-04-15T10:26:15;23.50;;;23.30;;
9270;SDS011;4673;53.458;9.940;2023-04-15T10:28:41;23.73;;;23.53;;
9270;SDS011;4673;53.458;9.940;2023-04-15T10:31:08;22.80;;;22.70;;
9270;SDS011;4673;53.458;9.940;2023-04-15T10:33:36;23.10;;;22.93;;
9270;SDS011;4673;53.458;9.940;2023-04-15T10:36:03;22.40;;;22.20;;
9270;SDS011;4673;53.458;9.940;2023-04-15T10:38:34;21.07;;;20.97;;
9270;SDS011;4673;53.458;9.940;2023-04-15T10:41:14;21.20;;;21.07;;
9270;SDS011;4673;53.458;9.940;2023-04-15T10:43:54;20.70;;;20.60;;
9270;SDS011;4673;53.458;9.940;2023-04-15T10:46:28;20.10;;;20.00;;
9270;SDS011;4673;53.458;9.940;2023-04-15T10:49:08;21.13;;;21.03;;
9270;SDS011;4673;53.458;9.940;2023-04-15T10:51:38;19.87;;;19.77;;
9270;SDS011;4673;53.458;9.940;2023-04-15T10:59:37;19.33;;;19.23;;
9270;SDS011;4673;53.458;9.940;2023-04-15T11:05:10;18.73;;;18.63;;
9270;SDS011;4673;53.458;9.940;2023-04-15T11:12:43;17.97;;;17.87;;
9270;SDS011;4673;53.458;9.940;2023-04-15T11:18:14;17.17;;;17.07;;
9270;SDS011;4673;53.458;9.940;2023-04-15T11:20:43;16.47;;;16.37;;
9270;SDS011;4673;53.458;9.940;2023-04-15T11:23:19;15.23;;;15.13;;
9270;SDS011;4673;53.458;9.940;2023-04-15T11:25:53;14.20;;;14.10;;
9270;SDS011;4673;53.458;9.940;2023-04-15T11:28:20;13.67;;;13.67;;
9270;SDS011;4673;53.458;9.940;2023-04-15T11:30:54;14.63;;;14.53;;
9270;SDS011;4673;53.458;9.940;2023-04-15T11:33:20;12.57;;;12.50;;
9270;SDS011;4673;53.458;9.940;2023-04-15T11:35:47;12.77;;;12.67;;
9270;SDS011;4673;53.458;9.940;2023-04-15T11:38:13;12.67;;;12.67;;
9270;SDS011;4673;53.458;9.940;2023-04-15T11:40:40;13.00;;;12.90;;
9270;SDS011;4673;53.458;9.940;2023-04-15T11:45:37;11.90;;;11.90;;
9270;SDS011;4673;53.458;9.940;2023-04-15T11:48:25;11.53;;;11.43;;
9270;SDS011;4673;53.458;9.940;2023-04-15T11:51:01;11.97;;;11.97;;
9270;SDS011;4673;53.458;9.940;2023-04-15T11:53:38;11.73;;;11.70;;
9270;SDS011;4673;53.458;9.940;2023-04-15T11:56:24;12.73;;;12.63;;
9270;SDS011;4673;53.458;9.940;2023-04-15T11:58:52;11.17;;;11.13;;
9270;SDS011;4673;53.458;9.940;2023-04-15T12:01:20;11.13;;;11.13;;
9270;SDS011;4673;53.458;9.940;2023-04-15T12:03:59;9.73;;;9.73;;
9270;SDS011;4673;53.458;9.940;2023-04-15T12:06:30;9.83;;;9.83;;
9270;SDS011;4673;53.458;9.940;2023-04-15T12:16:53;9.48;;;9.48;;
9270;SDS011;4673;53.458;9.940;2023-04-15T12:19:36;9.75;;;9.75;;
9270;SDS011;4673;53.458;9.940;2023-04-15T12:22:11;8.75;;;8.75;;
9270;SDS011;4673;53.458;9.940;2023-04-15T12:24:39;8.85;;;8.85;;
9270;SDS011;4673;53.458;9.940;2023-04-15T12:27:09;8.10;;;8.10;;
9270;SDS011;4673;53.458;9.940;2023-04-15T12:29:36;9.43;;;9.43;;
9270;SDS011;4673;53.458;9.940;2023-04-15T12:35:11;8.52;;;8.52;;
9270;SDS011;4673;53.458;9.940;2023-04-15T12:37:18;7.63;;;7.63;;
9270;SDS011;4673;53.458;9.940;2023-04-15T12:39:45;9.13;;;9.13;;
9270;SDS011;4673;53.458;9.940;2023-04-15T12:42:13;9.37;;;9.37;;
9270;SDS011;4673;53.458;9.940;2023-04-15T12:44:39;8.25;;;8.25;;
9270;SDS011;4673;53.458;9.940;2023-04-15T12:47:06;8.20;;;8.20;;
9270;SDS011;4673;53.458;9.940;2023-04-15T12:49:32;8.50;;;8.50;;
9270;SDS011;4673;53.458;9.940;2023-04-15T12:51:59;8.83;;;8.83;;
9270;SDS011;4673;53.458;9.940;2023-04-15T12:54:25;9.17;;;9.17;;
9270;SDS011;4673;53.458;9.940;2023-04-15T12:56:51;8.40;;;8.40;;
9270;SDS011;4673;53.458;9.940;2023-04-15T12:59:18;8.50;;;8.50;;
9270;SDS011;4673;53.458;9.940;2023-04-15T13:01:45;9.70;;;9.70;;
9270;SDS011;4673;53.458;9.940;2023-04-15T13:04:12;8.90;;;8.90;;
9270;SDS011;4673;53.458;9.940;2023-04-15T13:06:38;9.27;;;9.27;;
9270;SDS011;4673;53.458;9.940;2023-04-15T13:09:03;8.23;;;8.23;;
9270;SDS011;4673;53.458;9.940;2023-04-15T13:11:29;6.95;;;6.95;;
9270;SDS011;4673;53.458;9.940;2023-04-15T13:13:57;7.70;;;7.70;;
9270;SDS011;4673;53.458;9.940;2023-04-15T13:16:24;7.87;;;7.87;;
9270;SDS011;4673;53.458;9.940;2023-04-15T13:18:50;7.77;;;7.77;;
9270;SDS011;4673;53.458;9.940;2023-04-15T13:21:16;8.30;;;8.30;;
9270;SDS011;4673;53.458;9.940;2023-04-15T13:26:10;7.85;;;7.85;;
9270;SDS011;4673;53.458;9.940;2023-04-15T13:28:36;7.55;;;7.55;;
9270;SDS011;4673;53.458;9.940;2023-04-15T13:31:02;7.20;;;7.20;;
9270;SDS011;4673;53.458;9.940;2023-04-15T13:33:27;7.50;;;7.50;;
9270;SDS011;4673;53.458;9.940;2023-04-15T13:35:53;8.65;;;8.65;;
9270;SDS011;4673;53.458;9.940;2023-04-15T13:38:19;7.77;;;7.77;;
9270;SDS011;4673;53.458;9.940;2023-04-15T13:40:45;8.27;;;8.27;;
9270;SDS011;4673;53.458;9.940;2023-04-15T13:43:10;8.85;;;8.85;;
9270;SDS011;4673;53.458;9.940;2023-04-15T13:45:36;8.73;;;8.73;;
9270;SDS011;4673;53.458;9.940;2023-04-15T13:48:02;8.20;;;8.20;;
9270;SDS011;4673;53.458;9.940;2023-04-15T13:50:28;8.60;;;8.60;;
9270;SDS011;4673;53.458;9.940;2023-04-15T13:52:54;8.88;;;8.88;;
9270;SDS011;4673;53.458;9.940;2023-04-15T13:55:19;8.60;;;8.60;;
9270;SDS011;4673;53.458;9.940;2023-04-15T13:57:45;7.37;;;7.37;;
9270;SDS011;4673;53.458;9.940;2023-04-15T14:00:11;8.30;;;8.30;;
9270;SDS011;4673;53.458;9.940;2023-04-15T14:02:38;6.97;;;6.97;;
9270;SDS011;4673;53.458;9.940;2023-04-15T14:05:04;8.37;;;8.37;;
9270;SDS011;4673;53.458;9.940;2023-04-15T14:07:30;6.70;;;6.70;;
9270;SDS011;4673;53.458;9.940;2023-04-15T14:09:56;7.25;;;7.25;;
9270;SDS011;4673;53.458;9.940;2023-04-15T14:12:21;6.75;;;6.75;;
9270;SDS011;4673;53.458;9.940;2023-04-15T14:14:47;7.97;;;7.97;;
9270;SDS011;4673;53.458;9.940;2023-04-15T14:17:13;7.10;;;7.10;;
9270;SDS011;4673;53.458;9.940;2023-04-15T14:19:38;7.45;;;7.45;;
9270;SDS011;4673;53.458;9.940;2023-04-15T14:22:04;6.43;;;6.43;;
9270;SDS011;4673;53.458;9.940;2023-04-15T14:24:30;6.70;;;6.70;;
9270;SDS011;4673;53.458;9.940;2023-04-15T14:26:56;6.63;;;6.63;;
9270;SDS011;4673;53.458;9.940;2023-04-15T14:29:23;6.75;;;6.75;;
9270;SDS011;4673;53.458;9.940;2023-04-15T14:31:48;7.27;;;7.27;;
9270;SDS011;4673;53.458;9.940;2023-04-15T14:34:14;6.65;;;6.65;;
9270;SDS011;4673;53.458;9.940;2023-04-15T14:36:42;6.43;;;6.43;;
9270;SDS011;4673;53.458;9.940;2023-04-15T14:39:08;6.97;;;6.97;;
9270;SDS011;4673;53.458;9.940;2023-04-15T14:41:34;5.33;;;5.33;;
9270;SDS011;4673;53.458;9.940;2023-04-15T14:44:00;6.20;;;6.20;;
9270;SDS011;4673;53.458;9.940;2023-04-15T14:46:26;6.00;;;6.00;;
9270;SDS011;4673;53.458;9.940;2023-04-15T14:48:51;6.43;;;6.43;;
9270;SDS011;4673;53.458;9.940;2023-04-15T14:51:17;6.20;;;6.20;;
9270;SDS011;4673;53.458;9.940;2023-04-15T14:53:43;5.90;;;5.90;;
9270;SDS011;4673;53.458;9.940;2023-04-15T14:56:10;6.07;;;6.07;;
9270;SDS011;4673;53.458;9.940;2023-04-15T14:58:35;5.63;;;5.63;;
9270;SDS011;4673;53.458;9.940;2023-04-15T15:01:02;6.40;;;6.40;;
9270;SDS011;4673;53.458;9.940;2023-04-15T15:03:28;6.30;;;6.30;;
9270;SDS011;4673;53.458;9.940;2023-04-15T15:05:54;6.40;;;6.40;;
9270;SDS011;4673;53.458;9.940;2023-04-15T15:08:21;6.10;;;6.10;;
9270;SDS011;4673;53.458;9.940;2023-04-15T15:10:47;6.03;;;6.03;;
9270;SDS011;4673;53.458;9.940;2023-04-15T15:13:13;5.97;;;5.97;;
9270;SDS011;4673;53.458;9.940;2023-04-15T15:15:39;7.53;;;7.53;;
9270;SDS011;4673;53.458;9.940;2023-04-15T15:18:05;6.70;;;6.70;;
9270;SDS011;4673;53.458;9.940;2023-04-15T15:20:31;6.40;;;6.40;;
9270;SDS011;4673;53.458;9.940;2023-04-15T15:22:57;6.30;;;6.30;;
9270;SDS011;4673;53.458;9.940;2023-04-15T15:25:22;5.13;;;5.13;;
9270;SDS011;4673;53.458;9.940;2023-04-15T15:27:48;6.60;;;6.60;;
9270;SDS011;4673;53.458;9.940;2023-04-15T15:30:14;5.85;;;5.85;;
9270;SDS011;4673;53.458;9.940;2023-04-15T15:32:40;6.03;;;6.03;;